sensor_id;sensor_type;location;lat;lon;timestamp;pressure;altitude;pressure_sealevel;temperature;humidity
70072;BME280;57434;42.794;23.302;2023-03-18T00:00:44;96001.94;;;-2.09;80.47
70072;BME280;57434;42.794;23.302;2023-03-18T00:01:45;96088.75;;;-1.42;80.10
70072;BME280;57434;42.794;23.302;2023-03-18T00:02:47;96102.44;;;-1.31;79.93
70072;BME280;57434;42.794;23.302;2023-03-18T00:03:50;95940.94;;;-2.55;79.74
70072;BME280;57434;42.794;23.302;2023-03-18T00:04:52;96098.34;;;-1.64;79.75
70072;BME280;57434;42.794;23.302;2023-03-18T00:06:01;95950.81;;;-2.68;80.06
70072;BME280;57434;42.794;23.302;2023-03-18T00:07:03;95960.94;;;-2.55;80.10
70072;BME280;57434;42.794;23.302;2023-03-18T00:08:05;96023.56;;;-2.11;80.14
70072;BME280;57434;42.794;23.302;2023-03-18T00:09:07;96014.56;;;-2.18;80.34
70072;BME280;57434;42.794;23.302;2023-03-18T00:10:10;95917.91;;;-2.76;80.42
70072;BME280;57434;42.794;23.302;2023-03-18T00:11:13;96105.38;;;-1.56;80.51
70072;BME280;57434;42.794;23.302;2023-03-18T00:12:15;95994.13;;;-2.14;80.58
70072;BME280;57434;42.794;23.302;2023-03-18T00:13:17;96087.75;;;-1.69;80.40
70072;BME280;57434;42.794;23.302;2023-03-18T00:14:19;95946.91;;;-2.71;80.24
70072;BME280;57434;42.794;23.302;2023-03-18T00:15:20;95964.09;;;-2.60;80.67
70072;BME280;57434;42.794;23.302;2023-03-18T00:16:22;95939.00;;;-2.62;80.58
70072;BME280;57434;42.794;23.302;2023-03-18T00:17:24;96079.94;;;-1.81;80.60
70072;BME280;57434;42.794;23.302;2023-03-18T00:18:27;96079.22;;;-1.92;81.06
70072;BME280;57434;42.794;23.302;2023-03-18T00:19:29;95902.66;;;-2.91;80.55
70072;BME280;57434;42.794;23.302;2023-03-18T00:20:30;96054.13;;;-2.05;80.24
70072;BME280;57434;42.794;23.302;2023-03-18T00:21:33;96047.13;;;-2.10;80.23
70072;BME280;57434;42.794;23.302;2023-03-18T00:22:37;95826.47;;;-3.56;80.22
70072;BME280;57434;42.794;23.302;2023-03-18T00:23:39;95980.66;;;-2.78;80.42
70072;BME280;57434;42.794;23.302;2023-03-18T00:24:41;96064.41;;;-2.16;80.58
70072;BME280;57434;42.794;23.302;2023-03-18T00:25:46;95884.31;;;-3.15;80.29
70072;BME280;57434;42.794;23.302;2023-03-18T00:26:48;95939.16;;;-2.94;79.81
70072;BME280;57434;42.794;23.302;2023-03-18T00:27:50;95929.78;;;-3.18;79.87
70072;BME280;57434;42.794;23.302;2023-03-18T00:28:54;96053.88;;;-2.36;80.23
70072;BME280;57434;42.794;23.302;2023-03-18T00:29:56;96043.34;;;-2.51;80.05
70072;BME280;57434;42.794;23.302;2023-03-18T00:31:03;95930.63;;;-3.31;80.12
70072;BME280;57434;42.794;23.302;2023-03-18T00:32:05;95974.84;;;-2.97;79.93
70072;BME280;57434;42.794;23.302;2023-03-18T00:33:08;95901.28;;;-3.52;79.96
70072;BME280;57434;42.794;23.302;2023-03-18T00:34:11;95914.56;;;-3.36;79.68
70072;BME280;57434;42.794;23.302;2023-03-18T00:35:13;95945.53;;;-3.32;79.79
70072;BME280;57434;42.794;23.302;2023-03-18T00:36:15;96019.94;;;-2.98;79.90
70072;BME280;57434;42.794;23.302;2023-03-18T00:37:17;95918.06;;;-3.25;79.78
70072;BME280;57434;42.794;23.302;2023-03-18T00:38:19;95914.56;;;-3.26;79.93
70072;BME280;57434;42.794;23.302;2023-03-18T00:39:22;95900.44;;;-3.21;79.71
70072;BME280;57434;42.794;23.302;2023-03-18T00:40:24;95993.13;;;-2.55;79.67
70072;BME280;57434;42.794;23.302;2023-03-18T00:41:26;95906.25;;;-3.08;79.66
70072;BME280;57434;42.794;23.302;2023-03-18T00:42:28;95943.81;;;-2.80;79.76
70072;BME280;57434;42.794;23.302;2023-03-18T00:43:30;95987.63;;;-2.48;79.72
70072;BME280;57434;42.794;23.302;2023-03-18T00:44:32;95927.34;;;-2.84;79.67
70072;BME280;57434;42.794;23.302;2023-03-18T00:45:38;95917.13;;;-2.80;79.98
70072;BME280;57434;42.794;23.302;2023-03-18T00:46:40;95962.50;;;-2.47;80.15
70072;BME280;57434;42.794;23.302;2023-03-18T00:47:43;95901.78;;;-2.66;79.99
70072;BME280;57434;42.794;23.302;2023-03-18T00:48:45;95967.91;;;-2.32;79.88
70072;BME280;57434;42.794;23.302;2023-03-18T00:49:47;95871.38;;;-3.11;80.02
70072;BME280;57434;42.794;23.302;2023-03-18T00:50:49;95966.03;;;-2.53;80.12
70072;BME280;57434;42.794;23.302;2023-03-18T00:51:51;95928.84;;;-2.65;79.95
70072;BME280;57434;42.794;23.302;2023-03-18T00:52:53;95955.88;;;-2.63;79.90
70072;BME280;57434;42.794;23.302;2023-03-18T00:53:57;96054.91;;;-1.97;79.92
70072;BME280;57434;42.794;23.302;2023-03-18T00:55:00;95898.69;;;-2.83;79.77
70072;BME280;57434;42.794;23.302;2023-03-18T00:56:01;95881.91;;;-2.92;79.91
70072;BME280;57434;42.794;23.302;2023-03-18T00:57:03;96021.22;;;-2.16;80.13
70072;BME280;57434;42.794;23.302;2023-03-18T00:58:05;95917.91;;;-2.79;79.88
70072;BME280;57434;42.794;23.302;2023-03-18T00:59:07;95905.75;;;-2.82;79.95
70072;BME280;57434;42.794;23.302;2023-03-18T01:00:09;95929.56;;;-2.57;79.81
70072;BME280;57434;42.794;23.302;2023-03-18T01:01:12;96036.44;;;-2.00;80.17
70072;BME280;57434;42.794;23.302;2023-03-18T01:02:14;95945.28;;;-2.58;79.90
70072;BME280;57434;42.794;23.302;2023-03-18T01:03:16;95912.91;;;-3.02;79.15
70072;BME280;57434;42.794;23.302;2023-03-18T01:04:18;95923.50;;;-3.04;78.96
70072;BME280;57434;42.794;23.302;2023-03-18T01:05:20;95868.72;;;-3.43;79.15
70072;BME280;57434;42.794;23.302;2023-03-18T01:06:24;96081.34;;;-2.32;79.18
70072;BME280;57434;42.794;23.302;2023-03-18T01:07:26;95976.81;;;-3.09;79.29
70072;BME280;57434;42.794;23.302;2023-03-18T01:08:28;96023.81;;;-2.78;79.83
70072;BME280;57434;42.794;23.302;2023-03-18T01:09:30;95928.72;;;-3.52;80.06
70072;BME280;57434;42.794;23.302;2023-03-18T01:10:32;96033.63;;;-2.81;80.02
70072;BME280;57434;42.794;23.302;2023-03-18T01:11:34;96052.00;;;-2.56;79.88
70072;BME280;57434;42.794;23.302;2023-03-18T01:12:35;96036.34;;;-2.66;79.71
70072;BME280;57434;42.794;23.302;2023-03-18T01:13:39;96032.81;;;-2.67;79.79
70072;BME280;57434;42.794;23.302;2023-03-18T01:14:41;95997.53;;;-2.83;79.88
70072;BME280;57434;42.794;23.302;2023-03-18T01:15:43;95912.63;;;-3.43;79.91
70072;BME280;57434;42.794;23.302;2023-03-18T01:16:45;95877.44;;;-3.98;80.00
70072;BME280;57434;42.794;23.302;2023-03-18T01:17:47;95880.56;;;-3.85;80.25
70072;BME280;57434;42.794;23.302;2023-03-18T01:18:49;95971.75;;;-3.17;80.68
70072;BME280;57434;42.794;23.302;2023-03-18T01:19:51;96008.19;;;-3.06;80.86
70072;BME280;57434;42.794;23.302;2023-03-18T01:20:53;96028.63;;;-3.28;81.12
70072;BME280;57434;42.794;23.302;2023-03-18T01:21:55;95938.91;;;-3.85;81.54
70072;BME280;57434;42.794;23.302;2023-03-18T01:22:56;96060.72;;;-3.11;81.77
70072;BME280;57434;42.794;23.302;2023-03-18T01:23:58;96064.69;;;-3.26;81.98
70072;BME280;57434;42.794;23.302;2023-03-18T01:25:00;95958.91;;;-3.77;81.76
70072;BME280;57434;42.794;23.302;2023-03-18T01:26:02;96030.19;;;-3.20;81.86
70072;BME280;57434;42.794;23.302;2023-03-18T01:27:04;96074.06;;;-3.06;81.63
70072;BME280;57434;42.794;23.302;2023-03-18T01:28:06;96052.88;;;-3.13;81.56
70072;BME280;57434;42.794;23.302;2023-03-18T01:29:07;95954.97;;;-3.80;81.36
70072;BME280;57434;42.794;23.302;2023-03-18T01:30:10;95985.50;;;-3.28;81.20
70072;BME280;57434;42.794;23.302;2023-03-18T01:31:12;95934.94;;;-3.38;80.99
70072;BME280;57434;42.794;23.302;2023-03-18T01:32:14;95887.19;;;-3.65;80.63
70072;BME280;57434;42.794;23.302;2023-03-18T01:33:15;95874.28;;;-3.68;80.47
70072;BME280;57434;42.794;23.302;2023-03-18T01:34:17;96011.63;;;-2.70;80.29
70072;BME280;57434;42.794;23.302;2023-03-18T01:35:19;95871.13;;;-3.52;80.15
70072;BME280;57434;42.794;23.302;2023-03-18T01:36:21;95903.97;;;-3.27;79.93
70072;BME280;57434;42.794;23.302;2023-03-18T01:37:23;95995.94;;;-2.66;79.92
70072;BME280;57434;42.794;23.302;2023-03-18T01:38:26;96044.91;;;-2.43;79.29
70072;BME280;57434;42.794;23.302;2023-03-18T01:39:28;95867.94;;;-3.36;79.60
70072;BME280;57434;42.794;23.302;2023-03-18T01:40:33;95922.31;;;-3.07;79.73
70072;BME280;57434;42.794;23.302;2023-03-18T01:41:35;95924.69;;;-3.16;79.94
70072;BME280;57434;42.794;23.302;2023-03-18T01:42:37;95892.22;;;-3.35;80.12
70072;BME280;57434;42.794;23.302;2023-03-18T01:43:41;95903.19;;;-3.21;80.28
70072;BME280;57434;42.794;23.302;2023-03-18T01:44:43;95875.81;;;-3.49;80.08
70072;BME280;57434;42.794;23.302;2023-03-18T01:45:50;95884.84;;;-3.70;80.55
70072;BME280;57434;42.794;23.302;2023-03-18T01:46:53;95922.00;;;-3.37;80.56
70072;BME280;57434;42.794;23.302;2023-03-18T01:47:55;96014.41;;;-2.77;80.45
70072;BME280;57434;42.794;23.302;2023-03-18T01:48:57;95991.28;;;-2.83;80.53
70072;BME280;57434;42.794;23.302;2023-03-18T01:49:59;96068.47;;;-2.46;80.37
70072;BME280;57434;42.794;23.302;2023-03-18T01:51:06;95887.59;;;-3.59;80.61
70072;BME280;57434;42.794;23.302;2023-03-18T01:52:13;95972.84;;;-2.90;80.56
70072;BME280;57434;42.794;23.302;2023-03-18T01:53:16;95984.22;;;-2.84;80.04
70072;BME280;57434;42.794;23.302;2023-03-18T01:54:20;95948.66;;;-3.30;80.53
70072;BME280;57434;42.794;23.302;2023-03-18T01:55:30;95907.16;;;-3.47;80.84
70072;BME280;57434;42.794;23.302;2023-03-18T01:56:34;96054.00;;;-2.75;81.49
70072;BME280;57434;42.794;23.302;2023-03-18T01:57:36;95833.97;;;-3.85;80.75
70072;BME280;57434;42.794;23.302;2023-03-18T01:58:43;95839.84;;;-3.90;80.37
70072;BME280;57434;42.794;23.302;2023-03-18T01:59:47;96023.72;;;-2.53;80.94
70072;BME280;57434;42.794;23.302;2023-03-18T02:00:59;95972.06;;;-2.87;80.77
70072;BME280;57434;42.794;23.302;2023-03-18T02:02:39;96024.53;;;-2.56;80.83
70072;BME280;57434;42.794;23.302;2023-03-18T02:03:41;95850.03;;;-3.84;80.36
70072;BME280;57434;42.794;23.302;2023-03-18T02:04:52;95862.13;;;-3.70;80.67
70072;BME280;57434;42.794;23.302;2023-03-18T02:05:54;96027.75;;;-2.79;80.96
70072;BME280;57434;42.794;23.302;2023-03-18T02:06:57;95878.19;;;-3.69;80.72
70072;BME280;57434;42.794;23.302;2023-03-18T02:08:00;95847.69;;;-3.89;80.72
70072;BME280;57434;42.794;23.302;2023-03-18T02:09:03;95884.06;;;-3.70;80.85
70072;BME280;57434;42.794;23.302;2023-03-18T02:10:08;95999.56;;;-2.94;81.00
70072;BME280;57434;42.794;23.302;2023-03-18T02:11:10;95898.56;;;-3.66;81.17
70072;BME280;57434;42.794;23.302;2023-03-18T02:12:18;95975.31;;;-3.27;81.07
70072;BME280;57434;42.794;23.302;2023-03-18T02:13:22;95853.19;;;-4.14;80.99
70072;BME280;57434;42.794;23.302;2023-03-18T02:14:24;95756.94;;;-4.76;80.39
70072;BME280;57434;42.794;23.302;2023-03-18T02:15:28;95852.41;;;-4.18;80.07
70072;BME280;57434;42.794;23.302;2023-03-18T02:16:41;96021.53;;;-3.08;80.48
70072;BME280;57434;42.794;23.302;2023-03-18T02:17:48;95872.75;;;-4.01;80.03
70072;BME280;57434;42.794;23.302;2023-03-18T02:18:57;95983.94;;;-3.25;79.94
70072;BME280;57434;42.794;23.302;2023-03-18T02:20:32;95924.38;;;-3.46;79.78
70072;BME280;57434;42.794;23.302;2023-03-18T02:21:50;95838.31;;;-4.20;79.50
70072;BME280;57434;42.794;23.302;2023-03-18T02:23:00;96010.16;;;-3.14;80.11
70072;BME280;57434;42.794;23.302;2023-03-18T02:25:35;95876.25;;;-3.93;80.48
70072;BME280;57434;42.794;23.302;2023-03-18T02:26:55;96042.31;;;-2.96;80.22
70072;BME280;57434;42.794;23.302;2023-03-18T02:28:03;95870.03;;;-4.01;80.33
70072;BME280;57434;42.794;23.302;2023-03-18T02:29:08;96041.53;;;-3.04;80.41
70072;BME280;57434;42.794;23.302;2023-03-18T02:30:19;96013.69;;;-3.02;80.16
70072;BME280;57434;42.794;23.302;2023-03-18T02:31:23;95857.84;;;-4.00;80.34
70072;BME280;57434;42.794;23.302;2023-03-18T02:32:27;95997.22;;;-3.10;80.26
70072;BME280;57434;42.794;23.302;2023-03-18T02:33:35;95899.75;;;-3.85;79.85
70072;BME280;57434;42.794;23.302;2023-03-18T02:34:38;95845.34;;;-3.97;80.22
70072;BME280;57434;42.794;23.302;2023-03-18T02:35:46;95998.78;;;-3.16;80.33
70072;BME280;57434;42.794;23.302;2023-03-18T02:36:48;95862.56;;;-3.86;79.99
70072;BME280;57434;42.794;23.302;2023-03-18T02:37:50;96014.06;;;-3.04;80.08
70072;BME280;57434;42.794;23.302;2023-03-18T02:38:53;95875.47;;;-3.76;80.14
70072;BME280;57434;42.794;23.302;2023-03-18T02:41:20;95956.44;;;-3.11;79.78
70072;BME280;57434;42.794;23.302;2023-03-18T02:42:28;96017.56;;;-2.89;79.72
70072;BME280;57434;42.794;23.302;2023-03-18T02:43:31;96010.06;;;-2.71;79.78
70072;BME280;57434;42.794;23.302;2023-03-18T02:44:36;95985.38;;;-2.85;79.67
70072;BME280;57434;42.794;23.302;2023-03-18T02:45:48;96013.59;;;-2.71;79.53
70072;BME280;57434;42.794;23.302;2023-03-18T02:46:57;95908.69;;;-3.39;79.30
70072;BME280;57434;42.794;23.302;2023-03-18T02:48:03;95969.75;;;-2.95;79.58
70072;BME280;57434;42.794;23.302;2023-03-18T02:49:07;95869.97;;;-3.62;79.32
70072;BME280;57434;42.794;23.302;2023-03-18T02:50:09;95839.47;;;-4.21;78.80
70072;BME280;57434;42.794;23.302;2023-03-18T02:51:12;96021.56;;;-3.29;79.42
70072;BME280;57434;42.794;23.302;2023-03-18T02:52:14;96007.44;;;-3.39;79.20
70072;BME280;57434;42.794;23.302;2023-03-18T02:53:16;95914.22;;;-3.99;78.89
70072;BME280;57434;42.794;23.302;2023-03-18T02:54:25;95924.81;;;-3.97;78.79
70072;BME280;57434;42.794;23.302;2023-03-18T02:55:27;95997.66;;;-3.43;78.85
70072;BME280;57434;42.794;23.302;2023-03-18T02:56:29;95899.38;;;-4.09;78.59
70072;BME280;57434;42.794;23.302;2023-03-18T02:57:31;95872.38;;;-4.14;78.49
70072;BME280;57434;42.794;23.302;2023-03-18T02:58:34;95892.31;;;-3.95;78.49
70072;BME280;57434;42.794;23.302;2023-03-18T02:59:36;95910.72;;;-3.99;78.67
70072;BME280;57434;42.794;23.302;2023-03-18T03:00:38;95864.91;;;-4.27;78.33
70072;BME280;57434;42.794;23.302;2023-03-18T03:01:42;95882.94;;;-4.30;78.04
70072;BME280;57434;42.794;23.302;2023-03-18T03:02:45;95851.97;;;-4.52;78.47
70072;BME280;57434;42.794;23.302;2023-03-18T03:03:47;96053.28;;;-3.46;78.49
70072;BME280;57434;42.794;23.302;2023-03-18T03:04:49;95873.50;;;-4.54;78.61
70072;BME280;57434;42.794;23.302;2023-03-18T03:05:51;95879.38;;;-4.41;78.59
70072;BME280;57434;42.794;23.302;2023-03-18T03:06:55;95798.38;;;-4.88;78.56
70072;BME280;57434;42.794;23.302;2023-03-18T03:07:57;96014.53;;;-3.48;78.83
70072;BME280;57434;42.794;23.302;2023-03-18T03:08:58;96011.38;;;-3.50;79.04
70072;BME280;57434;42.794;23.302;2023-03-18T03:10:01;96005.09;;;-3.36;78.56
70072;BME280;57434;42.794;23.302;2023-03-18T03:11:03;95791.34;;;-4.82;78.33
70072;BME280;57434;42.794;23.302;2023-03-18T03:12:05;96028.59;;;-3.43;78.47
70072;BME280;57434;42.794;23.302;2023-03-18T03:13:07;95823.44;;;-4.47;78.44
70072;BME280;57434;42.794;23.302;2023-03-18T03:14:10;96022.75;;;-3.48;78.59
70072;BME280;57434;42.794;23.302;2023-03-18T03:15:12;95977.28;;;-3.70;78.78
70072;BME280;57434;42.794;23.302;2023-03-18T03:16:15;96005.09;;;-3.61;79.01
70072;BME280;57434;42.794;23.302;2023-03-18T03:17:18;95895.47;;;-4.29;79.10
70072;BME280;57434;42.794;23.302;2023-03-18T03:18:20;95955.75;;;-3.86;78.92
70072;BME280;57434;42.794;23.302;2023-03-18T03:19:22;95843.38;;;-4.25;78.65
70072;BME280;57434;42.794;23.302;2023-03-18T03:20:24;95905.63;;;-3.90;78.69
70072;BME280;57434;42.794;23.302;2023-03-18T03:21:26;95932.63;;;-3.71;78.78
70072;BME280;57434;42.794;23.302;2023-03-18T03:22:28;95789.00;;;-4.69;78.59
70072;BME280;57434;42.794;23.302;2023-03-18T03:23:30;95977.69;;;-3.61;78.76
70072;BME280;57434;42.794;23.302;2023-03-18T03:24:31;95894.69;;;-4.04;78.81
70072;BME280;57434;42.794;23.302;2023-03-18T03:25:33;95876.28;;;-4.11;78.83
70072;BME280;57434;42.794;23.302;2023-03-18T03:26:35;95893.13;;;-4.09;78.79
70072;BME280;57434;42.794;23.302;2023-03-18T03:27:37;95823.44;;;-4.58;78.71
70072;BME280;57434;42.794;23.302;2023-03-18T03:28:39;95916.19;;;-3.99;79.13
70072;BME280;57434;42.794;23.302;2023-03-18T03:29:41;95997.28;;;-3.49;79.16
70072;BME280;57434;42.794;23.302;2023-03-18T03:30:43;95852.78;;;-4.37;79.07
70072;BME280;57434;42.794;23.302;2023-03-18T03:31:45;95933.41;;;-4.20;79.21
70072;BME280;57434;42.794;23.302;2023-03-18T03:32:47;96015.69;;;-3.60;78.98
70072;BME280;57434;42.794;23.302;2023-03-18T03:33:49;95850.03;;;-4.58;78.94
70072;BME280;57434;42.794;23.302;2023-03-18T03:34:51;95979.25;;;-3.71;79.04
70072;BME280;57434;42.794;23.302;2023-03-18T03:35:53;95978.06;;;-3.84;79.18
70072;BME280;57434;42.794;23.302;2023-03-18T03:36:55;95974.56;;;-3.85;78.92
70072;BME280;57434;42.794;23.302;2023-03-18T03:37:57;96013.72;;;-3.63;78.48
70072;BME280;57434;42.794;23.302;2023-03-18T03:38:59;95943.97;;;-4.19;78.57
70072;BME280;57434;42.794;23.302;2023-03-18T03:40:01;95928.31;;;-4.22;78.84
70072;BME280;57434;42.794;23.302;2023-03-18T03:41:04;95893.06;;;-4.52;78.70
70072;BME280;57434;42.794;23.302;2023-03-18T03:42:06;96000.00;;;-3.84;79.13
70072;BME280;57434;42.794;23.302;2023-03-18T03:43:11;95892.28;;;-4.63;79.02
70072;BME280;57434;42.794;23.302;2023-03-18T03:44:13;95815.13;;;-5.07;79.01
70072;BME280;57434;42.794;23.302;2023-03-18T03:45:16;96059.16;;;-3.65;78.88
70072;BME280;57434;42.794;23.302;2023-03-18T03:46:19;95892.22;;;-4.77;78.97
70072;BME280;57434;42.794;23.302;2023-03-18T03:47:21;96040.72;;;-3.86;78.98
70072;BME280;57434;42.794;23.302;2023-03-18T03:48:23;95882.84;;;-4.87;79.17
70072;BME280;57434;42.794;23.302;2023-03-18T03:49:24;95875.41;;;-4.76;79.09
70072;BME280;57434;42.794;23.302;2023-03-18T03:50:26;95933.31;;;-4.66;78.93
70072;BME280;57434;42.794;23.302;2023-03-18T03:51:28;95987.41;;;-4.17;79.04
70072;BME280;57434;42.794;23.302;2023-03-18T03:52:30;96050.09;;;-4.01;78.68
70072;BME280;57434;42.794;23.302;2023-03-18T03:53:32;95868.66;;;-5.10;78.79
70072;BME280;57434;42.794;23.302;2023-03-18T03:54:34;95871.84;;;-4.97;78.69
70072;BME280;57434;42.794;23.302;2023-03-18T03:55:36;96030.91;;;-4.09;78.77
70072;BME280;57434;42.794;23.302;2023-03-18T03:56:38;96011.28;;;-4.18;78.52
70072;BME280;57434;42.794;23.302;2023-03-18T03:57:40;95854.19;;;-5.18;78.59
70072;BME280;57434;42.794;23.302;2023-03-18T03:58:42;95923.94;;;-4.65;78.61
70072;BME280;57434;42.794;23.302;2023-03-18T03:59:44;95892.59;;;-4.86;78.39
70072;BME280;57434;42.794;23.302;2023-03-18T04:00:46;95978.34;;;-4.50;79.00
70072;BME280;57434;42.794;23.302;2023-03-18T04:01:48;96026.03;;;-4.54;79.23
70072;BME280;57434;42.794;23.302;2023-03-18T04:02:51;95917.19;;;-4.96;79.60
70072;BME280;57434;42.794;23.302;2023-03-18T04:03:53;96025.00;;;-4.18;79.36
70072;BME280;57434;42.794;23.302;2023-03-18T04:04:55;95910.59;;;-4.88;78.81
70072;BME280;57434;42.794;23.302;2023-03-18T04:05:57;95907.34;;;-5.19;78.92
70072;BME280;57434;42.794;23.302;2023-03-18T04:06:59;95852.81;;;-5.66;79.41
70072;BME280;57434;42.794;23.302;2023-03-18T04:08:02;95961.41;;;-4.87;79.87
70072;BME280;57434;42.794;23.302;2023-03-18T04:09:04;95903.84;;;-5.16;79.18
70072;BME280;57434;42.794;23.302;2023-03-18T04:10:07;95991.63;;;-4.59;79.21
70072;BME280;57434;42.794;23.302;2023-03-18T04:11:09;95901.53;;;-5.03;79.05
70072;BME280;57434;42.794;23.302;2023-03-18T04:12:11;96032.84;;;-4.16;78.96
70072;BME280;57434;42.794;23.302;2023-03-18T04:13:13;96042.56;;;-4.26;78.87
70072;BME280;57434;42.794;23.302;2023-03-18T04:14:15;96031.56;;;-4.44;78.67
70072;BME280;57434;42.794;23.302;2023-03-18T04:15:18;95927.28;;;-5.07;78.65
70072;BME280;57434;42.794;23.302;2023-03-18T04:16:20;95894.81;;;-5.23;78.40
70072;BME280;57434;42.794;23.302;2023-03-18T04:17:22;95912.44;;;-5.06;78.70
70072;BME280;57434;42.794;23.302;2023-03-18T04:18:24;95908.13;;;-5.18;78.66
70072;BME280;57434;42.794;23.302;2023-03-18T04:19:26;96015.94;;;-4.36;79.02
70072;BME280;57434;42.794;23.302;2023-03-18T04:20:28;96026.09;;;-4.40;79.04
70072;BME280;57434;42.794;23.302;2023-03-18T04:21:30;96029.31;;;-4.17;79.16
70072;BME280;57434;42.794;23.302;2023-03-18T04:22:32;96081.78;;;-4.00;79.02
70072;BME280;57434;42.794;23.302;2023-03-18T04:23:34;96060.69;;;-3.93;78.75
70072;BME280;57434;42.794;23.302;2023-03-18T04:24:36;96119.03;;;-3.89;78.73
70072;BME280;57434;42.794;23.302;2023-03-18T04:25:38;95915.63;;;-4.94;78.67
70072;BME280;57434;42.794;23.302;2023-03-18T04:26:40;96046.19;;;-3.97;78.79
70072;BME280;57434;42.794;23.302;2023-03-18T04:27:42;96020.31;;;-4.10;78.61
70072;BME280;57434;42.794;23.302;2023-03-18T04:28:44;95938.75;;;-4.73;78.68
70072;BME280;57434;42.794;23.302;2023-03-18T04:29:46;95972.88;;;-4.46;78.96
70072;BME280;57434;42.794;23.302;2023-03-18T04:30:48;95950.13;;;-4.71;78.68
70072;BME280;57434;42.794;23.302;2023-03-18T04:31:50;95912.47;;;-4.99;78.93
70072;BME280;57434;42.794;23.302;2023-03-18T04:32:52;95925.47;;;-4.75;79.15
70072;BME280;57434;42.794;23.302;2023-03-18T04:33:54;96082.56;;;-4.00;79.28
70072;BME280;57434;42.794;23.302;2023-03-18T04:34:56;95922.72;;;-4.86;79.34
70072;BME280;57434;42.794;23.302;2023-03-18T04:35:58;96072.00;;;-4.05;79.48
70072;BME280;57434;42.794;23.302;2023-03-18T04:37:00;95966.56;;;-4.64;79.38
70072;BME280;57434;42.794;23.302;2023-03-18T04:38:02;95970.50;;;-4.55;79.29
70072;BME280;57434;42.794;23.302;2023-03-18T04:39:04;96009.72;;;-4.19;79.27
70072;BME280;57434;42.794;23.302;2023-03-18T04:40:06;95924.72;;;-4.65;79.00
70072;BME280;57434;42.794;23.302;2023-03-18T04:41:08;95932.19;;;-4.44;79.13
70072;BME280;57434;42.794;23.302;2023-03-18T04:42:10;96051.31;;;-3.78;79.34
70072;BME280;57434;42.794;23.302;2023-03-18T04:43:12;96073.25;;;-3.67;79.28
70072;BME280;57434;42.794;23.302;2023-03-18T04:44:13;95813.09;;;-5.39;79.13
70072;BME280;57434;42.794;23.302;2023-03-18T04:45:16;95989.38;;;-4.28;79.20
70072;BME280;57434;42.794;23.302;2023-03-18T04:46:18;95932.19;;;-4.48;79.04
70072;BME280;57434;42.794;23.302;2023-03-18T04:47:19;95957.59;;;-4.54;78.92
70072;BME280;57434;42.794;23.302;2023-03-18T04:48:21;95919.59;;;-4.73;79.24
70072;BME280;57434;42.794;23.302;2023-03-18T04:49:23;96072.84;;;-3.69;79.60
70072;BME280;57434;42.794;23.302;2023-03-18T04:50:25;96066.97;;;-3.71;79.42
70072;BME280;57434;42.794;23.302;2023-03-18T04:51:27;95968.97;;;-4.45;79.51
70072;BME280;57434;42.794;23.302;2023-03-18T04:52:29;95993.66;;;-4.27;79.78
70072;BME280;57434;42.794;23.302;2023-03-18T04:53:31;96081.09;;;-3.69;79.83
70072;BME280;57434;42.794;23.302;2023-03-18T04:54:32;96094.41;;;-3.64;79.83
70072;BME280;57434;42.794;23.302;2023-03-18T04:55:34;96012.09;;;-3.99;79.77
70072;BME280;57434;42.794;23.302;2023-03-18T04:56:36;95978.38;;;-4.39;79.87
70072;BME280;57434;42.794;23.302;2023-03-18T04:57:38;96030.50;;;-3.96;80.07
70072;BME280;57434;42.794;23.302;2023-03-18T04:58:40;95954.94;;;-4.29;80.22
70072;BME280;57434;42.794;23.302;2023-03-18T04:59:43;96034.47;;;-3.69;80.31
70072;BME280;57434;42.794;23.302;2023-03-18T05:00:44;96118.75;;;-3.34;80.46
70072;BME280;57434;42.794;23.302;2023-03-18T05:01:46;96078.00;;;-3.25;80.04
70072;BME280;57434;42.794;23.302;2023-03-18T05:02:48;96069.34;;;-3.09;79.76
70072;BME280;57434;42.794;23.302;2023-03-18T05:03:50;95941.25;;;-3.90;79.51
70072;BME280;57434;42.794;23.302;2023-03-18T05:04:52;95988.25;;;-3.53;79.27
70072;BME280;57434;42.794;23.302;2023-03-18T05:05:54;95972.59;;;-3.63;78.71
70072;BME280;57434;42.794;23.302;2023-03-18T05:06:56;96096.41;;;-2.93;78.54
70072;BME280;57434;42.794;23.302;2023-03-18T05:07:57;95926.38;;;-3.79;77.87
70072;BME280;57434;42.794;23.302;2023-03-18T05:08:59;95937.72;;;-3.66;77.39
70072;BME280;57434;42.794;23.302;2023-03-18T05:10:03;96091.72;;;-2.93;76.52
70072;BME280;57434;42.794;23.302;2023-03-18T05:11:06;96016.81;;;-3.18;76.21
70072;BME280;57434;42.794;23.302;2023-03-18T05:12:11;96034.47;;;-3.16;76.05
70072;BME280;57434;42.794;23.302;2023-03-18T05:13:13;96061.94;;;-3.19;75.76
70072;BME280;57434;42.794;23.302;2023-03-18T05:14:15;95926.00;;;-4.13;76.13
70072;BME280;57434;42.794;23.302;2023-03-18T05:15:17;96077.97;;;-3.14;76.23
70072;BME280;57434;42.794;23.302;2023-03-18T05:16:19;95953.78;;;-3.96;76.41
70072;BME280;57434;42.794;23.302;2023-03-18T05:17:21;96107.78;;;-3.06;76.71
70072;BME280;57434;42.794;23.302;2023-03-18T05:18:23;95947.13;;;-3.92;76.90
70072;BME280;57434;42.794;23.302;2023-03-18T05:19:24;95997.25;;;-3.66;77.02
70072;BME280;57434;42.794;23.302;2023-03-18T05:20:26;96087.38;;;-2.87;77.25
70072;BME280;57434;42.794;23.302;2023-03-18T05:21:28;95942.84;;;-3.86;77.25
70072;BME280;57434;42.794;23.302;2023-03-18T05:22:31;96070.91;;;-2.87;77.58
70072;BME280;57434;42.794;23.302;2023-03-18T05:23:33;95963.19;;;-3.80;77.71
70072;BME280;57434;42.794;23.302;2023-03-18T05:24:34;96056.03;;;-3.07;78.10
70072;BME280;57434;42.794;23.302;2023-03-18T05:25:36;96000.41;;;-3.47;78.39
70072;BME280;57434;42.794;23.302;2023-03-18T05:26:38;96078.78;;;-2.96;78.48
70072;BME280;57434;42.794;23.302;2023-03-18T05:27:40;95976.91;;;-3.51;78.55
70072;BME280;57434;42.794;23.302;2023-03-18T05:28:42;96035.63;;;-3.17;78.55
70072;BME280;57434;42.794;23.302;2023-03-18T05:29:44;95914.25;;;-3.92;78.28
70072;BME280;57434;42.794;23.302;2023-03-18T05:30:46;96119.53;;;-2.66;78.92
70072;BME280;57434;42.794;23.302;2023-03-18T05:31:48;95974.94;;;-3.47;78.77
70072;BME280;57434;42.794;23.302;2023-03-18T05:32:50;96044.25;;;-2.97;78.82